sensor_id;sensor_type;location;lat;lon;timestamp;pressure;altitude;pressure_sealevel;temperature;humidity
65276;BME280;51875;49.994;14.052;2023-05-09T00:00:12;99038.00;;;9.47;62.99
65276;BME280;51875;49.994;14.052;2023-05-09T00:01:48;99038.84;;;9.51;62.18
65276;BME280;51875;49.994;14.052;2023-05-09T00:03:04;99030.34;;;9.35;62.56
65276;BME280;51875;49.994;14.052;2023-05-09T00:04:20;99029.53;;;9.29;61.85
65276;BME280;51875;49.994;14.052;2023-05-09T00:05:35;99031.13;;;9.41;59.33
65276;BME280;51875;49.994;14.052;2023-05-09T00:06:51;99028.75;;;9.23;60.42
65276;BME280;51875;49.994;14.052;2023-05-09T00:08:06;99040.00;;;9.29;59.74
65276;BME280;51875;49.994;14.052;2023-05-09T00:09:22;99040.88;;;9.27;58.95
65276;BME280;51875;49.994;14.052;2023-05-09T00:10:38;99038.31;;;9.22;58.27
65276;BME280;51875;49.994;14.052;2023-05-09T00:11:53;99037.34;;;9.31;57.38
65276;BME280;51875;49.994;14.052;2023-05-09T00:13:09;99038.31;;;9.24;57.80
65276;BME280;51875;49.994;14.052;2023-05-09T00:14:24;99031.38;;;9.23;57.60
65276;BME280;51875;49.994;14.052;2023-05-09T00:15:40;99035.72;;;9.22;57.24
65276;BME280;51875;49.994;14.052;2023-05-09T00:16:56;99032.25;;;9.20;57.48
65276;BME280;51875;49.994;14.052;2023-05-09T00:18:13;99031.28;;;9.29;56.72
65276;BME280;51875;49.994;14.052;2023-05-09T00:19:29;99031.16;;;9.37;56.03
65276;BME280;51875;49.994;14.052;2023-05-09T00:20:45;99030.88;;;8.89;58.00
65276;BME280;51875;49.994;14.052;2023-05-09T00:22:00;99025.50;;;9.03;57.41
65276;BME280;51875;49.994;14.052;2023-05-09T00:23:16;99039.25;;;9.18;56.38
65276;BME280;51875;49.994;14.052;2023-05-09T00:24:32;99029.69;;;9.17;56.76
65276;BME280;51875;49.994;14.052;2023-05-09T00:25:47;99024.81;;;8.89;57.27
65276;BME280;51875;49.994;14.052;2023-05-09T00:27:03;99026.53;;;8.88;57.58
65276;BME280;51875;49.994;14.052;2023-05-09T00:28:19;99027.09;;;9.15;56.78
65276;BME280;51875;49.994;14.052;2023-05-09T00:29:35;99025.00;;;8.72;57.72
65276;BME280;51875;49.994;14.052;2023-05-09T00:30:51;99020.34;;;8.97;57.39
65276;BME280;51875;49.994;14.052;2023-05-09T00:32:06;99022.44;;;8.66;58.32
65276;BME280;51875;49.994;14.052;2023-05-09T00:33:22;99019.53;;;8.92;57.69
65276;BME280;51875;49.994;14.052;2023-05-09T00:34:41;99013.84;;;8.57;58.71
65276;BME280;51875;49.994;14.052;2023-05-09T00:35:56;99014.69;;;8.58;59.05
65276;BME280;51875;49.994;14.052;2023-05-09T00:37:12;99018.22;;;8.49;59.54
65276;BME280;51875;49.994;14.052;2023-05-09T00:38:27;99015.47;;;8.66;59.08
65276;BME280;51875;49.994;14.052;2023-05-09T00:39:43;99015.63;;;8.49;59.86
65276;BME280;51875;49.994;14.052;2023-05-09T00:40:58;99011.28;;;8.54;59.96
65276;BME280;51875;49.994;14.052;2023-05-09T00:42:14;99014.59;;;8.69;58.73
65276;BME280;51875;49.994;14.052;2023-05-09T00:43:30;99007.69;;;8.61;58.98
65276;BME280;51875;49.994;14.052;2023-05-09T00:44:46;99001.06;;;8.26;60.11
65276;BME280;51875;49.994;14.052;2023-05-09T00:46:01;99013.03;;;8.47;59.18
65276;BME280;51875;49.994;14.052;2023-05-09T00:47:19;99012.03;;;8.64;58.95
65276;BME280;51875;49.994;14.052;2023-05-09T00:48:34;99004.31;;;8.53;59.10
65276;BME280;51875;49.994;14.052;2023-05-09T00:49:50;99013.97;;;8.40;59.57
65276;BME280;51875;49.994;14.052;2023-05-09T00:51:06;99009.41;;;8.62;58.75
65276;BME280;51875;49.994;14.052;2023-05-09T00:52:24;99018.16;;;8.60;58.42
65276;BME280;51875;49.994;14.052;2023-05-09T00:53:40;99010.59;;;8.30;59.92
65276;BME280;51875;49.994;14.052;2023-05-09T00:54:56;99010.34;;;8.60;58.96
65276;BME280;51875;49.994;14.052;2023-05-09T00:56:13;99011.09;;;8.70;58.32
65276;BME280;51875;49.994;14.052;2023-05-09T00:57:29;99010.56;;;8.35;59.92
65276;BME280;51875;49.994;14.052;2023-05-09T00:58:44;99009.38;;;8.66;58.69
65276;BME280;51875;49.994;14.052;2023-05-09T01:00:00;99006.00;;;8.57;59.00
65276;BME280;51875;49.994;14.052;2023-05-09T01:01:16;99005.03;;;8.66;58.58
65276;BME280;51875;49.994;14.052;2023-05-09T01:02:32;99006.94;;;8.52;59.26
65276;BME280;51875;49.994;14.052;2023-05-09T01:03:48;99005.13;;;8.58;58.92
65276;BME280;51875;49.994;14.052;2023-05-09T01:05:05;99002.84;;;8.23;60.18
65276;BME280;51875;49.994;14.052;2023-05-09T01:08:14;99005.91;;;8.67;58.64
65276;BME280;51875;49.994;14.052;2023-05-09T01:11:17;99007.78;;;8.55;59.36
65276;BME280;51875;49.994;14.052;2023-05-09T01:13:02;99006.94;;;8.47;59.22
65276;BME280;51875;49.994;14.052;2023-05-09T01:14:40;99007.97;;;8.30;59.99
65276;BME280;51875;49.994;14.052;2023-05-09T01:16:05;99002.03;;;8.17;60.90
65276;BME280;51875;49.994;14.052;2023-05-09T01:17:30;99005.31;;;8.37;60.58
65276;BME280;51875;49.994;14.052;2023-05-09T01:20:32;99011.31;;;8.45;59.98
65276;BME280;51875;49.994;14.052;2023-05-09T01:21:50;99010.44;;;8.47;59.48
65276;BME280;51875;49.994;14.052;2023-05-09T01:25:32;99009.75;;;8.27;60.48
65276;BME280;51875;49.994;14.052;2023-05-09T01:27:14;99013.00;;;8.49;60.00
65276;BME280;51875;49.994;14.052;2023-05-09T01:30:10;99009.56;;;8.50;60.30
65276;BME280;51875;49.994;14.052;2023-05-09T01:31:27;98999.28;;;8.31;60.53
65276;BME280;51875;49.994;14.052;2023-05-09T01:32:45;98999.34;;;8.24;62.08
65276;BME280;51875;49.994;14.052;2023-05-09T01:34:04;99002.00;;;8.20;61.94
65276;BME280;51875;49.994;14.052;2023-05-09T01:35:24;98995.09;;;8.15;62.12
65276;BME280;51875;49.994;14.052;2023-05-09T01:36:42;98999.59;;;7.94;63.08
65276;BME280;51875;49.994;14.052;2023-05-09T01:37:58;98995.34;;;7.81;63.51
65276;BME280;51875;49.994;14.052;2023-05-09T01:39:16;98995.56;;;7.53;64.70
65276;BME280;51875;49.994;14.052;2023-05-09T01:40:32;98998.09;;;7.60;65.01
65276;BME280;51875;49.994;14.052;2023-05-09T01:41:52;98992.81;;;7.74;64.30
65276;BME280;51875;49.994;14.052;2023-05-09T01:43:10;98988.53;;;7.66;65.37
65276;BME280;51875;49.994;14.052;2023-05-09T01:44:31;98993.63;;;7.83;64.24
65276;BME280;51875;49.994;14.052;2023-05-09T01:45:49;98999.09;;;7.45;66.18
65276;BME280;51875;49.994;14.052;2023-05-09T01:47:06;99002.56;;;7.44;65.91
65276;BME280;51875;49.994;14.052;2023-05-09T01:48:24;98996.28;;;7.75;64.51
65276;BME280;51875;49.994;14.052;2023-05-09T01:49:42;99004.06;;;7.80;64.03
65276;BME280;51875;49.994;14.052;2023-05-09T01:50:58;98995.44;;;7.70;63.81
65276;BME280;51875;49.994;14.052;2023-05-09T01:52:17;99001.38;;;7.89;63.51
65276;BME280;51875;49.994;14.052;2023-05-09T01:53:34;99004.25;;;7.53;65.96
65276;BME280;51875;49.994;14.052;2023-05-09T01:54:50;98999.94;;;7.46;66.67
65276;BME280;51875;49.994;14.052;2023-05-09T01:56:06;99006.19;;;7.17;69.21
65276;BME280;51875;49.994;14.052;2023-05-09T01:57:24;99001.97;;;6.94;70.04
65276;BME280;51875;49.994;14.052;2023-05-09T01:58:40;98997.47;;;7.27;68.69
65276;BME280;51875;49.994;14.052;2023-05-09T01:59:57;99005.41;;;6.95;71.04
65276;BME280;51875;49.994;14.052;2023-05-09T02:01:14;98992.38;;;7.04;71.08
65276;BME280;51875;49.994;14.052;2023-05-09T02:02:30;98997.66;;;6.85;72.20
65276;BME280;51875;49.994;14.052;2023-05-09T02:03:49;98992.47;;;6.84;72.35
65276;BME280;51875;49.994;14.052;2023-05-09T02:05:08;98991.59;;;6.75;72.94
65276;BME280;51875;49.994;14.052;2023-05-09T02:06:25;98990.75;;;6.75;74.10
65276;BME280;51875;49.994;14.052;2023-05-09T02:07:45;98979.56;;;6.39;75.78
65276;BME280;51875;49.994;14.052;2023-05-09T02:09:02;98978.69;;;6.52;75.23
65276;BME280;51875;49.994;14.052;2023-05-09T02:10:18;98988.19;;;6.66;74.27
65276;BME280;51875;49.994;14.052;2023-05-09T02:11:35;98983.00;;;6.62;74.94
65276;BME280;51875;49.994;14.052;2023-05-09T02:12:51;98986.50;;;6.44;75.48
65276;BME280;51875;49.994;14.052;2023-05-09T02:14:07;98981.31;;;6.32;76.64
65276;BME280;51875;49.994;14.052;2023-05-09T02:15:23;98988.28;;;6.30;77.80
65276;BME280;51875;49.994;14.052;2023-05-09T02:16:39;98988.25;;;6.38;77.16
65276;BME280;51875;49.994;14.052;2023-05-09T02:17:55;98989.97;;;6.46;76.68
65276;BME280;51875;49.994;14.052;2023-05-09T02:19:10;98979.59;;;6.32;77.43
65276;BME280;51875;49.994;14.052;2023-05-09T02:20:26;98984.84;;;6.17;79.28
65276;BME280;51875;49.994;14.052;2023-05-09T02:21:42;98992.53;;;6.60;76.24
65276;BME280;51875;49.994;14.052;2023-05-09T02:22:57;98989.94;;;6.59;75.52
65276;BME280;51875;49.994;14.052;2023-05-09T02:24:13;98988.28;;;6.22;79.15
65276;BME280;51875;49.994;14.052;2023-05-09T02:25:30;98989.13;;;6.40;77.69
65276;BME280;51875;49.994;14.052;2023-05-09T02:26:46;98989.16;;;6.30;77.96
65276;BME280;51875;49.994;14.052;2023-05-09T02:28:02;98987.44;;;6.01;81.47
65276;BME280;51875;49.994;14.052;2023-05-09T02:29:20;98986.53;;;6.24;78.99
65276;BME280;51875;49.994;14.052;2023-05-09T02:30:42;98990.88;;;6.25;78.95
65276;BME280;51875;49.994;14.052;2023-05-09T02:31:59;98987.41;;;6.00;80.95
65276;BME280;51875;49.994;14.052;2023-05-09T02:33:17;98988.28;;;6.31;78.81
65276;BME280;51875;49.994;14.052;2023-05-09T02:34:34;98985.63;;;6.41;77.60
65276;BME280;51875;49.994;14.052;2023-05-09T02:35:51;98990.03;;;5.89;82.69
65276;BME280;51875;49.994;14.052;2023-05-09T02:37:08;98990.88;;;5.96;83.06
65276;BME280;51875;49.994;14.052;2023-05-09T02:38:24;98982.25;;;6.09;81.73
65276;BME280;51875;49.994;14.052;2023-05-09T02:39:41;98985.69;;;6.27;80.84
65276;BME280;51875;49.994;14.052;2023-05-09T02:40:57;98980.47;;;6.28;80.21
65276;BME280;51875;49.994;14.052;2023-05-09T02:42:18;98978.75;;;6.12;80.18
65276;BME280;51875;49.994;14.052;2023-05-09T02:43:35;98980.50;;;6.03;81.56
65276;BME280;51875;49.994;14.052;2023-05-09T02:44:51;98981.34;;;5.96;82.04
65276;BME280;51875;49.994;14.052;2023-05-09T02:46:08;98983.09;;;6.14;80.60
65276;BME280;51875;49.994;14.052;2023-05-09T02:47:23;98982.22;;;6.29;79.26
65276;BME280;51875;49.994;14.052;2023-05-09T02:48:40;98978.75;;;6.18;79.84
65276;BME280;51875;49.994;14.052;2023-05-09T02:49:55;98982.22;;;6.23;79.29
65276;BME280;51875;49.994;14.052;2023-05-09T02:51:11;98980.47;;;5.74;83.32
65276;BME280;51875;49.994;14.052;2023-05-09T02:52:26;98991.72;;;5.46;86.78
65276;BME280;51875;49.994;14.052;2023-05-09T02:53:42;98991.69;;;5.26;90.29
65276;BME280;51875;49.994;14.052;2023-05-09T02:54:57;98984.78;;;5.65;86.80
65276;BME280;51875;49.994;14.052;2023-05-09T02:56:13;98988.22;;;5.36;89.63
65276;BME280;51875;49.994;14.052;2023-05-09T02:57:29;98988.25;;;5.61;87.73
65276;BME280;51875;49.994;14.052;2023-05-09T02:58:45;98982.22;;;5.72;86.28
65276;BME280;51875;49.994;14.052;2023-05-09T03:00:05;98976.16;;;5.54;88.02
65276;BME280;51875;49.994;14.052;2023-05-09T03:01:24;98978.75;;;5.84;85.22
65276;BME280;51875;49.994;14.052;2023-05-09T03:02:40;98985.69;;;5.68;86.46
65276;BME280;51875;49.994;14.052;2023-05-09T03:03:55;98979.63;;;5.64;86.57
65276;BME280;51875;49.994;14.052;2023-05-09T03:05:11;98980.50;;;5.78;84.72
65276;BME280;51875;49.994;14.052;2023-05-09T03:06:27;98980.50;;;5.83;82.30
65276;BME280;51875;49.994;14.052;2023-05-09T03:07:43;98981.34;;;5.90;81.55
65276;BME280;51875;49.994;14.052;2023-05-09T03:08:58;98986.53;;;5.71;80.06
65276;BME280;51875;49.994;14.052;2023-05-09T03:10:14;98983.91;;;5.56;81.00
65276;BME280;51875;49.994;14.052;2023-05-09T03:11:30;98987.38;;;5.50;83.41
65276;BME280;51875;49.994;14.052;2023-05-09T03:12:45;98979.59;;;5.65;82.49
65276;BME280;51875;49.994;14.052;2023-05-09T03:14:01;98978.72;;;5.56;84.14
65276;BME280;51875;49.994;14.052;2023-05-09T03:15:17;98981.31;;;5.45;88.35
65276;BME280;51875;49.994;14.052;2023-05-09T03:16:33;98983.03;;;5.35;90.92
65276;BME280;51875;49.994;14.052;2023-05-09T03:17:49;98981.34;;;5.54;87.54
65276;BME280;51875;49.994;14.052;2023-05-09T03:19:04;98978.72;;;5.56;84.98
65276;BME280;51875;49.994;14.052;2023-05-09T03:20:20;98979.56;;;5.34;86.08
65276;BME280;51875;49.994;14.052;2023-05-09T03:21:35;98978.66;;;5.17;87.54
65276;BME280;51875;49.994;14.052;2023-05-09T03:22:51;98976.91;;;5.08;89.77
65276;BME280;51875;49.994;14.052;2023-05-09T03:24:07;98982.97;;;5.07;89.58
65276;BME280;51875;49.994;14.052;2023-05-09T03:25:22;98980.38;;;5.04;88.83
65276;BME280;51875;49.994;14.052;2023-05-09T03:26:40;98977.78;;;5.04;87.77
65276;BME280;51875;49.994;14.052;2023-05-09T03:27:55;98984.66;;;5.02;85.91
65276;BME280;51875;49.994;14.052;2023-05-09T03:29:11;98975.94;;;4.73;86.08
65276;BME280;51875;49.994;14.052;2023-05-09T03:30:27;98983.78;;;4.93;85.23
65276;BME280;51875;49.994;14.052;2023-05-09T03:31:42;98976.06;;;5.06;84.43
65276;BME280;51875;49.994;14.052;2023-05-09T03:32:58;98981.19;;;4.93;84.69
65276;BME280;51875;49.994;14.052;2023-05-09T03:34:13;98981.22;;;5.00;84.70
65276;BME280;51875;49.994;14.052;2023-05-09T03:35:29;98979.50;;;5.06;83.42
65276;BME280;51875;49.994;14.052;2023-05-09T03:36:45;98978.59;;;4.97;83.04
65276;BME280;51875;49.994;14.052;2023-05-09T03:38:00;98988.13;;;4.98;83.88
65276;BME280;51875;49.994;14.052;2023-05-09T03:39:16;98986.38;;;4.92;82.99
65276;BME280;51875;49.994;14.052;2023-05-09T03:40:31;98978.53;;;4.73;84.41
65276;BME280;51875;49.994;14.052;2023-05-09T03:41:47;98975.06;;;4.74;85.80
65276;BME280;51875;49.994;14.052;2023-05-09T03:43:03;98976.75;;;4.61;87.37
65276;BME280;51875;49.994;14.052;2023-05-09T03:44:19;98981.94;;;4.63;88.41
65276;BME280;51875;49.994;14.052;2023-05-09T03:45:35;98975.00;;;4.65;88.66
65276;BME280;51875;49.994;14.052;2023-05-09T03:46:52;98975.88;;;4.64;89.31
65276;BME280;51875;49.994;14.052;2023-05-09T03:48:08;98977.59;;;4.62;90.90
65276;BME280;51875;49.994;14.052;2023-05-09T03:49:23;98969.00;;;4.72;89.34
65276;BME280;51875;49.994;14.052;2023-05-09T03:50:39;98975.88;;;4.67;89.41
65276;BME280;51875;49.994;14.052;2023-05-09T03:51:55;98972.47;;;4.74;89.04
65276;BME280;51875;49.994;14.052;2023-05-09T03:53:10;98970.75;;;4.73;88.52
65276;BME280;51875;49.994;14.052;2023-05-09T03:54:26;98974.19;;;4.71;89.02
65276;BME280;51875;49.994;14.052;2023-05-09T03:55:42;98971.56;;;4.68;88.54
65276;BME280;51875;49.994;14.052;2023-05-09T03:56:57;98967.28;;;4.68;88.35
65276;BME280;51875;49.994;14.052;2023-05-09T03:58:13;98971.56;;;4.64;89.66
65276;BME280;51875;49.994;14.052;2023-05-09T03:59:29;98964.72;;;4.76;88.30
65276;BME280;51875;49.994;14.052;2023-05-09T04:00:45;98972.44;;;4.70;87.95
65276;BME280;51875;49.994;14.052;2023-05-09T04:02:00;98976.75;;;4.61;89.77
65276;BME280;51875;49.994;14.052;2023-05-09T04:03:16;98970.66;;;4.53;90.83
65276;BME280;51875;49.994;14.052;2023-05-09T04:04:31;98972.38;;;4.48;92.67
65276;BME280;51875;49.994;14.052;2023-05-09T04:05:47;98971.44;;;4.43;94.21
65276;BME280;51875;49.994;14.052;2023-05-09T04:07:03;98979.28;;;4.53;92.81
65276;BME280;51875;49.994;14.052;2023-05-09T04:08:18;98985.28;;;4.40;95.40
65276;BME280;51875;49.994;14.052;2023-05-09T04:09:34;98981.91;;;4.58;92.98
65276;BME280;51875;49.994;14.052;2023-05-09T04:10:50;98975.88;;;4.61;93.34
65276;BME280;51875;49.994;14.052;2023-05-09T04:12:06;98978.47;;;4.62;94.09
65276;BME280;51875;49.994;14.052;2023-05-09T04:13:22;98973.31;;;4.69;95.08
65276;BME280;51875;49.994;14.052;2023-05-09T04:14:38;98977.66;;;4.74;94.71
65276;BME280;51875;49.994;14.052;2023-05-09T04:15:53;98979.41;;;4.77;95.47
65276;BME280;51875;49.994;14.052;2023-05-09T04:17:09;98977.66;;;4.80;94.66
65276;BME280;51875;49.994;14.052;2023-05-09T04:18:24;98974.22;;;4.81;94.93
65276;BME280;51875;49.994;14.052;2023-05-09T04:19:40;98977.66;;;4.80;94.37
65276;BME280;51875;49.994;14.052;2023-05-09T04:20:56;98969.84;;;4.73;93.65
65276;BME280;51875;49.994;14.052;2023-05-09T04:22:11;98983.66;;;4.62;94.88
65276;BME280;51875;49.994;14.052;2023-05-09T04:23:27;98975.84;;;4.55;94.58
65276;BME280;51875;49.994;14.052;2023-05-09T04:24:42;98978.44;;;4.55;95.65
65276;BME280;51875;49.994;14.052;2023-05-09T04:25:58;98975.88;;;4.64;95.17
65276;BME280;51875;49.994;14.052;2023-05-09T04:27:14;98975.94;;;4.76;94.20
65276;BME280;51875;49.994;14.052;2023-05-09T04:28:29;98973.31;;;4.75;93.92
65276;BME280;51875;49.994;14.052;2023-05-09T04:29:45;98971.63;;;4.80;94.64
65276;BME280;51875;49.994;14.052;2023-05-09T04:31:01;98973.41;;;4.89;93.61
65276;BME280;51875;49.994;14.052;2023-05-09T04:32:17;98967.38;;;4.96;92.88
65276;BME280;51875;49.994;14.052;2023-05-09T04:33:35;98967.31;;;4.88;94.20
65276;BME280;51875;49.994;14.052;2023-05-09T04:34:52;98969.09;;;4.97;92.96
65276;BME280;51875;49.994;14.052;2023-05-09T04:36:08;98975.19;;;5.04;93.11
65276;BME280;51875;49.994;14.052;2023-05-09T04:37:23;98973.44;;;5.04;94.81
65276;BME280;51875;49.994;14.052;2023-05-09T04:38:39;98970.81;;;5.03;94.17
65276;BME280;51875;49.994;14.052;2023-05-09T04:39:54;98971.63;;;4.78;99.24
65276;BME280;51875;49.994;14.052;2023-05-09T04:41:10;98977.66;;;4.71;100.00
65276;BME280;51875;49.994;14.052;2023-05-09T04:42:26;98981.16;;;4.83;100.00
65276;BME280;51875;49.994;14.052;2023-05-09T04:43:41;98971.66;;;4.94;100.00
65276;BME280;51875;49.994;14.052;2023-05-09T04:44:58;98972.53;;;4.93;100.00
65276;BME280;51875;49.994;14.052;2023-05-09T04:46:14;98973.44;;;4.98;100.00
65276;BME280;51875;49.994;14.052;2023-05-09T04:47:29;98973.41;;;5.00;100.00
65276;BME280;51875;49.994;14.052;2023-05-09T04:48:45;98973.44;;;5.04;100.00
65276;BME280;51875;49.994;14.052;2023-05-09T04:50:00;98978.66;;;5.11;100.00
65276;BME280;51875;49.994;14.052;2023-05-09T04:51:16;98978.59;;;4.90;100.00
65276;BME280;51875;49.994;14.052;2023-05-09T04:52:32;98982.00;;;4.81;100.00
65276;BME280;51875;49.994;14.052;2023-05-09T04:53:47;98977.72;;;4.93;100.00
65276;BME280;51875;49.994;14.052;2023-05-09T04:55:03;98976.91;;;5.08;100.00
65276;BME280;51875;49.994;14.052;2023-05-09T04:56:18;98979.53;;;5.13;100.00
65276;BME280;51875;49.994;14.052;2023-05-09T04:57:34;98972.56;;;5.05;100.00
65276;BME280;51875;49.994;14.052;2023-05-09T04:58:49;98972.56;;;4.99;100.00
65276;BME280;51875;49.994;14.052;2023-05-09T05:00:06;98969.19;;;5.25;100.00
65276;BME280;51875;49.994;14.052;2023-05-09T05:01:22;98973.50;;;5.18;100.00
65276;BME280;51875;49.994;14.052;2023-05-09T05:02:37;98978.72;;;5.34;100.00
65276;BME280;51875;49.994;14.052;2023-05-09T05:03:53;98975.25;;;5.33;100.00
65276;BME280;51875;49.994;14.052;2023-05-09T05:05:09;98964.88;;;5.50;100.00
65276;BME280;51875;49.994;14.052;2023-05-09T05:06:24;98967.47;;;5.50;100.00
65276;BME280;51875;49.994;14.052;2023-05-09T05:07:40;98965.75;;;5.62;100.00
65276;BME280;51875;49.994;14.052;2023-05-09T05:08:55;98970.97;;;5.67;99.59
65276;BME280;51875;49.994;14.052;2023-05-09T05:10:11;98967.47;;;5.69;99.75
65276;BME280;51875;49.994;14.052;2023-05-09T05:11:28;98964.00;;;5.62;100.00
65276;BME280;51875;49.994;14.052;2023-05-09T05:12:43;98973.56;;;5.77;100.00
65276;BME280;51875;49.994;14.052;2023-05-09T05:13:58;98967.47;;;5.72;100.00
65276;BME280;51875;49.994;14.052;2023-05-09T05:15:15;98964.00;;;5.65;100.00
65276;BME280;51875;49.994;14.052;2023-05-09T05:16:30;98968.34;;;5.84;100.00
65276;BME280;51875;49.994;14.052;2023-05-09T05:17:46;98960.56;;;5.94;100.00
65276;BME280;51875;49.994;14.052;2023-05-09T05:19:02;98959.72;;;6.11;100.00
65276;BME280;51875;49.994;14.052;2023-05-09T05:20:17;98956.19;;;6.31;98.87
65276;BME280;51875;49.994;14.052;2023-05-09T05:21:33;98951.88;;;6.13;100.00
65276;BME280;51875;49.994;14.052;2023-05-09T05:22:49;98953.59;;;6.28;100.00
65276;BME280;51875;49.994;14.052;2023-05-09T05:24:04;98959.66;;;6.33;99.41
65276;BME280;51875;49.994;14.052;2023-05-09T05:25:20;98945.75;;;6.42;97.02
65276;BME280;51875;49.994;14.052;2023-05-09T05:26:36;98959.59;;;6.59;96.00
65276;BME280;51875;49.994;14.052;2023-05-09T05:27:52;98953.47;;;6.68;94.95
65276;BME280;51875;49.994;14.052;2023-05-09T05:29:07;98952.59;;;6.68;96.45
65276;BME280;51875;49.994;14.052;2023-05-09T05:30:23;98956.00;;;6.87;94.49
65276;BME280;51875;49.994;14.052;2023-05-09T05:31:39;98952.56;;;6.80;92.85
65276;BME280;51875;49.994;14.052;2023-05-09T05:32:54;98952.53;;;6.88;91.25
65276;BME280;51875;49.994;14.052;2023-05-09T05:34:10;98953.31;;;7.02;89.27
65276;BME280;51875;49.994;14.052;2023-05-09T05:35:25;98956.72;;;7.14;88.75
65276;BME280;51875;49.994;14.052;2023-05-09T05:36:42;98955.88;;;7.12;87.61
65276;BME280;51875;49.994;14.052;2023-05-09T05:37:58;98956.69;;;7.21;86.94
65276;BME280;51875;49.994;14.052;2023-05-09T05:39:14;98954.84;;;7.41;84.77
65276;BME280;51875;49.994;14.052;2023-05-09T05:40:29;98952.16;;;7.55;82.25
65276;BME280;51875;49.994;14.052;2023-05-09T05:41:45;98953.84;;;7.59;79.04
65276;BME280;51875;49.994;14.052;2023-05-09T05:43:01;98952.97;;;7.58;78.91
65276;BME280;51875;49.994;14.052;2023-05-09T05:44:16;98954.53;;;7.81;77.69
65276;BME280;51875;49.994;14.052;2023-05-09T05:45:32;98951.09;;;7.73;76.27
65276;BME280;51875;49.994;14.052;2023-05-09T05:46:47;98950.06;;;7.94;75.09
65276;BME280;51875;49.994;14.052;2023-05-09T05:48:03;98948.22;;;8.05;74.72
65276;BME280;51875;49.994;14.052;2023-05-09T05:49:19;98950.72;;;8.18;74.01
65276;BME280;51875;49.994;14.052;2023-05-09T05:50:34;98947.19;;;8.22;74.90
65276;BME280;51875;49.994;14.052;2023-05-09T05:51:50;98946.25;;;8.28;73.30
65276;BME280;51875;49.994;14.052;2023-05-09T05:53:06;98947.03;;;8.38;73.69
65276;BME280;51875;49.994;14.052;2023-05-09T05:54:22;98942.69;;;8.38;73.32
65276;BME280;51875;49.994;14.052;2023-05-09T05:55:37;98949.56;;;8.45;71.96
65276;BME280;51875;49.994;14.052;2023-05-09T05:56:53;98948.59;;;8.57;69.98
65276;BME280;51875;49.994;14.052;2023-05-09T05:58:09;98945.81;;;8.71;71.19
65276;BME280;51875;49.994;14.052;2023-05-09T05:59:24;98952.78;;;8.71;70.28
65276;BME280;51875;49.994;14.052;2023-05-09T06:00:40;98952.84;;;8.65;69.53
65276;BME280;51875;49.994;14.052;2023-05-09T06:01:55;98942.44;;;8.61;68.91
65276;BME280;51875;49.994;14.052;2023-05-09T06:03:11;98939.56;;;8.83;69.03
65276;BME280;51875;49.994;14.052;2023-05-09T06:04:28;98941.59;;;8.59;70.49
65276;BME280;51875;49.994;14.052;2023-05-09T06:05:45;98933.38;;;8.92;68.16
65276;BME280;51875;49.994;14.052;2023-05-09T06:07:01;98933.16;;;9.06;69.04
65276;BME280;51875;49.994;14.052;2023-05-09T06:08:17;98934.19;;;8.96;68.04
65276;BME280;51875;49.994;14.052;2023-05-09T06:09:32;98933.94;;;9.13;68.59
65276;BME280;51875;49.994;14.052;2023-05-09T06:10:48;98929.44;;;9.26;68.13
65276;BME280;51875;49.994;14.052;2023-05-09T06:12:04;98923.38;;;9.21;65.27
65276;BME280;51875;49.994;14.052;2023-05-09T06:13:20;98925.91;;;9.27;66.55
65276;BME280;51875;49.994;14.052;2023-05-09T06:14:36;98925.88;;;9.30;66.58
65276;BME280;51875;49.994;14.052;2023-05-09T06:15:54;98925.69;;;9.42;64.67
65276;BME280;51875;49.994;14.052;2023-05-09T06:17:12;98924.78;;;9.45;65.92
65276;BME280;51875;49.994;14.052;2023-05-09T06:18:28;98926.47;;;9.47;67.13
65276;BME280;51875;49.994;14.052;2023-05-09T06:19:47;98925.63;;;9.47;66.58
65276;BME280;51875;49.994;14.052;2023-05-09T06:21:03;98923.78;;;9.54;65.65
65276;BME280;51875;49.994;14.052;2023-05-09T06:22:18;98924.63;;;9.54;64.68
65276;BME280;51875;49.994;14.052;2023-05-09T06:23:34;98919.81;;;9.83;65.73
65276;BME280;51875;49.994;14.052;2023-05-09T06:24:50;98922.22;;;9.95;65.63
65276;BME280;51875;49.994;14.052;2023-05-09T06:26:06;98916.75;;;10.08;63.86
65276;BME280;51875;49.994;14.052;2023-05-09T06:27:22;98917.47;;;10.16;63.31
65276;BME280;51875;49.994;14.052;2023-05-09T06:28:37;98915.44;;;10.30;63.23
65276;BME280;51875;49.994;14.052;2023-05-09T06:29:53;98918.06;;;10.30;61.22
65276;BME280;51875;49.994;14.052;2023-05-09T06:31:08;98918.69;;;10.45;62.14
65276;BME280;51875;49.994;14.052;2023-05-09T06:32:24;98916.31;;;10.31;62.19
65276;BME280;51875;49.994;14.052;2023-05-09T06:33:40;98917.78;;;10.46;58.08
65276;BME280;51875;49.994;14.052;2023-05-09T06:34:55;98920.25;;;10.55;59.13
65276;BME280;51875;49.994;14.052;2023-05-09T06:36:11;98914.16;;;10.55;58.17
65276;BME280;51875;49.994;14.052;2023-05-09T06:37:26;98912.13;;;10.69;59.55
65276;BME280;51875;49.994;14.052;2023-05-09T06:38:42;98910.84;;;10.87;57.53
65276;BME280;51875;49.994;14.052;2023-05-09T06:39:58;98910.19;;;10.78;58.89
65276;BME280;51875;49.994;14.052;2023-05-09T06:41:13;98903.53;;;11.02;57.99
65276;BME280;51875;49.994;14.052;2023-05-09T06:42:29;98900.69;;;11.13;57.95
65276;BME280;51875;49.994;14.052;2023-05-09T06:43:46;98902.41;;;11.14;58.12
65276;BME280;51875;49.994;14.052;2023-05-09T06:45:02;98897.66;;;11.30;56.01
65276;BME280;51875;49.994;14.052;2023-05-09T06:46:18;98894.13;;;11.31;55.21
65276;BME280;51875;49.994;14.052;2023-05-09T06:47:33;98888.69;;;11.40;55.52
65276;BME280;51875;49.994;14.052;2023-05-09T06:48:49;98897.53;;;11.36;55.75
65276;BME280;51875;49.994;14.052;2023-05-09T06:50:05;98888.69;;;11.40;55.54
65276;BME280;51875;49.994;14.052;2023-05-09T06:51:21;98881.31;;;11.56;55.15
65276;BME280;51875;49.994;14.052;2023-05-09T06:52:36;98885.56;;;11.61;53.55